Time;durP1;ratioP1;P1;durP2;ratioP2;P2;SDS_P1;SDS_P2;PMS_P1;PMS_P2;Temp;Humidity;BMP_temperature;BMP_pressure;BME280_temperature;BME280_humidity;BME280_pressure;Samples;Min_cycle;Max_cycle;Signal;HPM_P1;HPM_P2
2023/04/28 00:00:10;;;;;;;;;;;;;;;;;;5091461;28;19924;-62
2023/04/28 00:02:36;;;;;;;;;;;;;;;;;;5083177;28;19977;-61
2023/04/28 00:05:02;;;;;;;;;;;;;;;;;;5071733;28;19927;-61
2023/04/28 00:07:28;;;;;;;;;;;;;;;;;;5088349;28;19920;-61
2023/04/28 00:09:55;;;;;;;;;;;;;;;;;;5083535;28;20362;-61
2023/04/28 00:12:21;;;;;;;;;;;;;;;;;;5094933;28;19927;-61
2023/04/28 00:14:47;;;;;;;;;;;;;;;;;;5073719;28;19924;-61
2023/04/28 00:17:13;;;;;;;;;;;;;;;;;;5084615;28;20268;-61
2023/04/28 00:19:39;;;;;;;;;;;;;;;;;;5064788;28;19925;-62
2023/04/28 00:22:05;;;;;;;;;;;;;;;;;;5073856;28;19920;-61
2023/04/28 00:24:32;;;;;;;;;;;;;;;;;;5091196;28;20549;-61
2023/04/28 00:26:58;;;;;;;;;;;;;;;;;;5091231;28;19927;-61
2023/04/28 00:29:24;;;;;;;;;;;;;;;;;;5094465;28;19924;-61
2023/04/28 00:31:50;;;;;;;;;;;;;;;;;;5075807;28;19993;-62
2023/04/28 00:34:16;;;;;;;;;;;;;;;;;;5086163;28;19928;-61
2023/04/28 00:36:42;;;;;;;;;;;;;;;;;;5092783;28;19927;-61
2023/04/28 00:39:08;;;;;;;;;;;;;;;;;;5094129;28;19960;-61
2023/04/28 00:41:34;;;;;;;;;;;;;;;;;;5092950;28;19924;-61
2023/04/28 00:44:00;;;;;;;;;;;;;;;;;;5092520;28;19981;-61
2023/04/28 00:46:26;;;;;;;;;;;;;;;;;;5073505;28;20321;-61
2023/04/28 00:48:52;;;;;;;;;;;;;;;;;;5092563;28;20015;-62
2023/04/28 00:51:18;;;;;;;;;;;;;;;;;;5093237;28;19928;-61
2023/04/28 00:53:44;;;;;;;;;;;;;;;;;;5092407;28;19920;-62
2023/04/28 00:56:10;;;;;;;;;;;;;;;;;;5057329;28;19932;-62
2023/04/28 00:58:36;;;;;;;;;;;;;;;;;;5090685;28;20416;-61
2023/04/28 01:01:02;;;;;;;;;;;;;;;;;;5092587;28;19920;-62
2023/04/28 01:03:28;;;;;;;;;;;;;;;;;;5092477;28;19927;-62
2023/04/28 01:05:54;;;;;;;;;;;;;;;;;;5093273;28;19924;-61
2023/04/28 01:08:20;;;;;;;;;;;;;;;;;;5091634;28;19992;-61
2023/04/28 01:10:45;;;;;;;;;;;;;;;;;;5074061;28;19920;-61
2023/04/28 01:13:11;;;;;;;;;;;;;;;;;;5079091;28;19924;-61
2023/04/28 01:15:37;;;;;;;;;;;;;;;;;;5091384;28;19928;-62
2023/04/28 01:18:03;;;;;;;;;;;;;;;;;;5095866;28;19971;-62
2023/04/28 01:20:29;;;;;;;;;;;;;;;;;;5091833;28;19930;-62
2023/04/28 01:22:55;;;;;;;;;;;;;;;;;;5092068;28;20638;-62
2023/04/28 01:25:21;;;;;;;;;;;;;;;;;;5094462;28;19924;-62
2023/04/28 01:27:47;;;;;;;;;;;;;;;;;;5076608;28;19924;-62
2023/04/28 01:30:13;;;;;;;;;;;;;;;;;;5094581;28;20595;-62
2023/04/28 01:32:39;;;;;;;;;;;;;;;;;;5093175;28;19928;-62
2023/04/28 01:35:05;;;;;;;;;;;;;;;;;;5091637;28;19950;-62
2023/04/28 01:37:31;;;;;;;;;;;;;;;;;;5059819;28;19921;-62
2023/04/28 01:39:57;;;;;;;;;;;;;;;;;;5093572;28;20063;-62
2023/04/28 01:42:23;;;;;;;;;;;;;;;;;;5093200;28;19920;-62
2023/04/28 01:44:49;;;;;;;;;;;;;;;;;;5075954;28;19958;-62
2023/04/28 01:47:15;;;;;;;;;;;;;;;;;;5084072;28;19920;-62
2023/04/28 01:49:41;;;;;;;;;;;;;;;;;;5094017;28;19942;-62
2023/04/28 01:52:07;;;;;;;;;;;;;;;;;;5073830;28;19936;-62
2023/04/28 01:54:32;;;;;;;;;;;;;;;;;;5093784;28;19924;-62
2023/04/28 01:56:58;;;;;;;;;;;;;;;;;;5093075;28;19927;-62
2023/04/28 01:59:24;;;;;;;;;;;;;;;;;;5088722;28;19977;-62
2023/04/28 02:01:50;;;;;;;;;;;;;;;;;;5092711;28;20296;-62
2023/04/28 02:04:16;;;;;;;;;;;;;;;;;;5092216;28;19931;-62
2023/04/28 02:06:42;;;;;;;;;;;;;;;;;;5091092;28;19920;-62
2023/04/28 02:09:08;;;;;;;;;;;;;;;;;;5073385;28;19920;-62
2023/04/28 02:11:34;;;;;;;;;;;;;;;;;;5093245;28;19924;-62
2023/04/28 02:14:00;;;;;;;;;;;;;;;;;;5093419;28;19931;-62
2023/04/28 02:16:26;;;;;;;;;;;;;;;;;;5096842;28;20626;-62
2023/04/28 02:18:51;;;;;;;;;;;;;;;;;;5076622;28;19967;-62
2023/04/28 02:21:17;;;;;;;;;;;;;;;;;;5092119;28;19973;-62
2023/04/28 02:23:43;;;;;;;;;;;;;;;;;;5075226;28;19924;-62
2023/04/28 02:26:09;;;;;;;;;;;;;;;;;;5061195;28;19920;-62
2023/04/28 02:28:35;;;;;;;;;;;;;;;;;;5074653;28;19964;-62
2023/04/28 02:31:01;;;;;;;;;;;;;;;;;;5092144;28;20545;-62
2023/04/28 02:33:27;;;;;;;;;;;;;;;;;;5092426;28;19973;-62
2023/04/28 02:35:53;;;;;;;;;;;;;;;;;;5087310;28;19924;-62
2023/04/28 02:38:19;;;;;;;;;;;;;;;;;;5074717;28;19928;-62
2023/04/28 02:40:45;;;;;;;;;;;;;;;;;;5092067;28;19931;-62
2023/04/28 02:43:11;;;;;;;;;;;;;;;;;;5092283;28;20468;-62
2023/04/28 02:45:37;;;;;;;;;;;;;;;;;;5082479;28;19920;-62
2023/04/28 02:48:03;;;;;;;;;;;;;;;;;;5093562;28;19920;-62
2023/04/28 02:50:29;;;;;;;;;;;;;;;;;;5093619;22;20301;-62
2023/04/28 02:52:55;;;;;;;;;;;;;;;;;;5106398;28;20136;-61
2023/04/28 02:55:23;;;;;;;;;;;;;;;;;;5110551;28;20390;-62
2023/04/28 02:57:49;;;;;;;;;;;;;;;;;;5109054;28;20368;-62
2023/04/28 03:00:15;;;;;;;;;;;;;;;;;;5109618;28;19919;-62
2023/04/28 03:02:41;;;;;;;;;;;;;;;;;;5110589;28;20453;-61
2023/04/28 03:05:06;;;;;;;;;;;;;;;;;;5111591;28;19919;-61
2023/04/28 03:07:32;;;;;;;;;;;;;;;;;;5110592;28;19955;-62
2023/04/28 03:09:58;;;;;;;;;;;;;;;;;;5106404;28;19919;-61
2023/04/28 03:12:24;;;;;;;;;;;;;;;;;;5105220;27;19931;-62
2023/04/28 03:14:50;;;;;;;;;;;;;;;;;;5109766;28;20368;-61
2023/04/28 03:17:16;;;;;;;;;;;;;;;;;;5105308;28;19920;-62
2023/04/28 03:19:42;;;;;;;;;;;;;;;;;;5101208;28;19996;-61
2023/04/28 03:22:08;;;;;;;;;;;;;;;;;;5113760;27;19928;-62
2023/04/28 03:24:34;;;;;;;;;;;;;;;;;;5107606;27;19950;-61
2023/04/28 03:27:01;;;;;;;;;;;;;;;;;;5109463;28;20396;-61
2023/04/28 03:29:26;;;;;;;;;;;;;;;;;;5108137;28;19931;-61
2023/04/28 03:31:52;;;;;;;;;;;;;;;;;;5113008;28;19919;-61
2023/04/28 03:34:18;;;;;;;;;;;;;;;;;;5108631;28;19965;-61
2023/04/28 03:36:44;;;;;;;;;;;;;;;;;;5095253;28;19920;-61
2023/04/28 03:39:10;;;;;;;;;;;;;;;;;;5106793;28;19928;-61
2023/04/28 03:41:36;;;;;;;;;;;;;;;;;;5082843;28;19924;-61
2023/04/28 03:44:02;;;;;;;;;;;;;;;;;;5110474;27;19950;-61
2023/04/28 03:46:28;;;;;;;;;;;;;;;;;;5092593;27;20001;-61
2023/04/28 03:48:54;;;;;;;;;;;;;;;;;;5099344;28;19924;-61
2023/04/28 03:51:20;;;;;;;;;;;;;;;;;;5112253;28;20018;-61
2023/04/28 03:53:46;;;;;;;;;;;;;;;;;;5106820;28;20361;-61
2023/04/28 03:56:12;;;;;;;;;;;;;;;;;;5086738;28;19924;-61
2023/04/28 03:58:38;;;;;;;;;;;;;;;;;;5098843;28;19927;-61
2023/04/28 04:01:04;;;;;;;;;;;;;;;;;;5082924;28;20255;-61
2023/04/28 04:03:30;;;;;;;;;;;;;;;;;;5080010;28;19928;-61
2023/04/28 04:05:56;;;;;;;;;;;;;;;;;;5108390;28;19930;-61
2023/04/28 04:08:22;;;;;;;;;;;;;;;;;;5105363;28;19920;-61
2023/04/28 04:10:48;;;;;;;;;;;;;;;;;;5107779;28;20289;-61
2023/04/28 04:13:14;;;;;;;;;;;;;;;;;;5083552;28;19927;-61
2023/04/28 04:15:39;;;;;;;;;;;;;;;;;;5105195;28;19930;-61
2023/04/28 04:18:05;;;;;;;;;;;;;;;;;;5103819;28;19964;-61
2023/04/28 04:20:31;;;;;;;;;;;;;;;;;;5094407;28;19928;-61
2023/04/28 04:22:57;;;;;;;;;;;;;;;;;;5087329;28;19928;-62
2023/04/28 04:25:23;;;;;;;;;;;;;;;;;;5096889;28;19928;-61
2023/04/28 04:27:49;;;;;;;;;;;;;;;;;;5074635;28;20273;-61
2023/04/28 04:30:15;;;;;;;;;;;;;;;;;;5104537;28;20014;-61
2023/04/28 04:32:41;;;;;;;;;;;;;;;;;;5108066;28;19919;-61
2023/04/28 04:35:07;;;;;;;;;;;;;;;;;;5109165;28;19924;-62
2023/04/28 04:37:33;;;;;;;;;;;;;;;;;;5101284;28;19935;-61
2023/04/28 04:39:59;;;;;;;;;;;;;;;;;;5101536;28;19924;-62
2023/04/28 04:42:25;;;;;;;;;;;;;;;;;;5088189;28;19929;-61
2023/04/28 04:44:51;;;;;;;;;;;;;;;;;;5100829;28;19981;-62
2023/04/28 04:47:17;;;;;;;;;;;;;;;;;;5111023;28;19994;-61
2023/04/28 04:49:43;;;;;;;;;;;;;;;;;;5105624;28;20288;-62
2023/04/28 04:52:09;;;;;;;;;;;;;;;;;;5105446;28;19928;-62
2023/04/28 04:54:35;;;;;;;;;;;;;;;;;;5104198;28;19934;-61
2023/04/28 04:57:01;;;;;;;;;;;;;;;;;;5113290;28;20352;-62
2023/04/28 04:59:27;;;;;;;;;;;;;;;;;;5075039;28;19924;-62
2023/04/28 05:01:53;;;;;;;;;;;;;;;;;;5109504;28;19928;-62
2023/04/28 05:04:19;;;;;;;;;;;;;;;;;;5107732;28;19969;-62
2023/04/28 05:06:45;;;;;;;;;;;;;;;;;;5083661;28;20353;-62
2023/04/28 05:09:11;;;;;;;;;;;;;;;;;;5108485;28;19928;-62
2023/04/28 05:11:37;;;;;;;;;;;;;;;;;;5102384;28;19920;-62
2023/04/28 05:14:02;;;;;;;;;;;;;;;;;;5089686;28;20596;-61
2023/04/28 05:16:28;;;;;;;;;;;;;;;;;;5108368;28;19927;-62
2023/04/28 05:18:54;;;;;;;;;;;;;;;;;;5080626;28;19924;-62
2023/04/28 05:21:20;;;;;;;;;;;;;;;;;;5086245;28;19927;-61
2023/04/28 05:23:46;;;;;;;;;;;;;;;;;;5094764;28;20277;-60
2023/04/28 05:26:12;;;;;;;;;;;;;;;;;;5095914;28;19920;-60
2023/04/28 05:28:38;;;;;;;;;;;;;;;;;;5096113;28;19931;-60
2023/04/28 05:31:04;;;;;;;;;;;;;;;;;;5097599;28;19927;-61
2023/04/28 05:33:30;;;;;;;;;;;;;;;;;;5091559;28;20357;-60
2023/04/28 05:35:56;;;;;;;;;;;;;;;;;;5104926;28;19926;-61
2023/04/28 05:38:22;;;;;;;;;;;;;;;;;;5091492;28;19924;-61
2023/04/28 05:40:48;;;;;;;;;;;;;;;;;;5085468;28;19948;-61
2023/04/28 05:43:14;;;;;;;;;;;;;;;;;;5105698;28;20554;-61
2023/04/28 05:45:43;;;;;;;;;;;;;;;;;;5105951;28;20300;-61
2023/04/28 05:48:09;;;;;;;;;;;;;;;;;;5112524;28;19923;-61
2023/04/28 05:50:35;;;;;;;;;;;;;;;;;;5097436;28;19920;-61
2023/04/28 05:53:01;;;;;;;;;;;;;;;;;;5103637;28;20442;-61
2023/04/28 05:55:27;;;;;;;;;;;;;;;;;;5102019;28;20467;-61
2023/04/28 05:57:53;;;;;;;;;;;;;;;;;;5077710;28;20380;-61
2023/04/28 06:00:18;;;;;;;;;;;;;;;;;;5105640;28;19927;-61
2023/04/28 06:02:44;;;;;;;;;;;;;;;;;;5099160;28;19924;-61
2023/04/28 06:05:10;;;;;;;;;;;;;;;;;;5092045;28;19928;-61
2023/04/28 06:07:36;;;;;;;;;;;;;;;;;;5065248;28;19925;-61
2023/04/28 06:10:02;;;;;;;;;;;;;;;;;;5082469;28;19920;-62
2023/04/28 06:12:28;;;;;;;;;;;;;;;;;;5089099;28;20003;-61
2023/04/28 06:14:54;;;;;;;;;;;;;;;;;;5054748;28;19947;-62
2023/04/28 06:17:20;;;;;;;;;;;;;;;;;;5089835;28;19928;-61
2023/04/28 06:19:46;;;;;;;;;;;;;;;;;;5086611;28;20286;-60
2023/04/28 06:22:12;;;;;;;;;;;;;;;;;;5091186;28;19969;-61
2023/04/28 06:24:40;;;;;;;;;;;;;;;;;;5092025;28;20014;-61
2023/04/28 06:27:06;;;;;;;;;;;;;;;;;;5086820;28;19923;-61
2023/04/28 06:29:32;;;;;;;;;;;;;;;;;;5073212;28;20388;-61
2023/04/28 06:31:58;;;;;;;;;;;;;;;;;;5085491;28;20057;-61
2023/04/28 06:34:26;;;;;;;;;;;;;;;;;;5092427;28;19920;-61
2023/04/28 06:36:52;;;;;;;;;;;;;;;;;;5077278;28;20397;-61
2023/04/28 06:39:18;;;;;;;;;;;;;;;;;;5092747;28;19924;-61
2023/04/28 06:41:44;;;;;;;;;;;;;;;;;;5095916;28;20280;-60
2023/04/28 06:44:10;;;;;;;;;;;;;;;;;;5084699;28;19920;-61
2023/04/28 06:46:36;;;;;;;;;;;;;;;;;;5076349;28;19920;-61
2023/04/28 06:49:02;;;;;;;;;;;;;;;;;;5093986;28;20027;-61
2023/04/28 06:51:28;;;;;;;;;;;;;;;;;;5117414;27;20010;-61
2023/04/28 06:53:53;;;;;;;;;;;;;;;;;;5108561;28;20281;-61
2023/04/28 06:56:20;;;;;;;;;;;;;;;;;;5093031;28;19926;-61
2023/04/28 06:58:46;;;;;;;;;;;;;;;;;;5112481;28;19927;-61
2023/04/28 07:01:12;;;;;;;;;;;;;;;;;;5112209;28;19923;-62
2023/04/28 07:03:38;;;;;;;;;;;;;;;;;;5112164;28;19923;-62
2023/04/28 07:06:04;;;;;;;;;;;;;;;;;;5112627;28;20016;-62
2023/04/28 07:08:30;;;;;;;;;;;;;;;;;;5113328;27;20008;-62
2023/04/28 07:10:55;;;;;;;;;;;;;;;;;;5075782;28;19920;-62
2023/04/28 07:13:21;;;;;;;;;;;;;;;;;;5112651;27;19985;-62
2023/04/28 07:15:47;;;;;;;;;;;;;;;;;;5109481;27;19924;-62
2023/04/28 07:18:13;;;;;;;;;;;;;;;;;;5110569;27;19967;-62
2023/04/28 07:20:39;;;;;;;;;;;;;;;;;;5109831;27;19926;-62
2023/04/28 07:23:05;;;;;;;;;;;;;;;;;;5103869;28;20030;-62
2023/04/28 07:25:31;;;;;;;;;;;;;;;;;;5063238;28;19931;-62
2023/04/28 07:27:57;;;;;;;;;;;;;;;;;;5106902;27;20002;-62
2023/04/28 07:30:23;;;;;;;;;;;;;;;;;;5107446;27;19928;-62
2023/04/28 07:32:49;;;;;;;;;;;;;;;;;;5109641;28;19965;-62
2023/04/28 07:35:15;;;;;;;;;;;;;;;;;;5111497;28;19923;-62
2023/04/28 07:37:41;;;;;;;;;;;;;;;;;;5094015;28;19928;-62
2023/04/28 07:40:06;;;;;;;;;;;;;;;;;;5076557;28;19919;-61
2023/04/28 07:42:32;;;;;;;;;;;;;;;;;;5104899;28;19924;-61
2023/04/28 07:44:58;;;;;;;;;;;;;;;;;;5103328;28;19924;-61
2023/04/28 07:47:25;;;;;;;;;;;;;;;;;;5103787;28;19920;-61
2023/04/28 07:49:51;;;;;;;;;;;;;;;;;;5109897;28;19920;-61
2023/04/28 07:52:17;;;;;;;;;;;;;;;;;;5115150;28;19943;-61
2023/04/28 07:54:43;;;;;;;;;;;;;;;;;;5108209;28;20457;-61
2023/04/28 07:57:09;;;;;;;;;;;;;;;;;;5115397;28;19926;-61
2023/04/28 07:59:35;;;;;;;;;;;;;;;;;;5112038;28;19999;-61
2023/04/28 08:02:01;;;;;;;;;;;;;;;;;;5106044;28;19927;-61
2023/04/28 08:04:27;;;;;;;;;;;;;;;;;;5107204;28;19920;-61
2023/04/28 08:06:53;;;;;;;;;;;;;;;;;;5109794;28;19924;-61
2023/04/28 08:09:19;;;;;;;;;;;;;;;;;;5107635;28;19931;-61
2023/04/28 08:11:45;;;;;;;;;;;;;;;;;;5089518;28;19920;-60
2023/04/28 08:14:11;;;;;;;;;;;;;;;;;;5103077;28;20020;-60
2023/04/28 08:16:39;;;;;;;;;;;;;;;;;;5105199;28;19924;-61
2023/04/28 08:19:05;;;;;;;;;;;;;;;;;;5108611;28;20057;-61
2023/04/28 08:21:31;;;;;;;;;;;;;;;;;;5088153;28;20022;-61
2023/04/28 08:23:57;;;;;;;;;;;;;;;;;;5108275;28;19927;-61
2023/04/28 08:26:23;;;;;;;;;;;;;;;;;;5111741;28;19919;-62
2023/04/28 08:28:50;;;;;;;;;;;;;;;;;;5109761;28;19924;-62
2023/04/28 08:31:16;;;;;;;;;;;;;;;;;;5108323;27;20307;-61
2023/04/28 08:33:43;;;;;;;;;;;;;;;;;;5103942;27;20015;-62
2023/04/28 08:36:10;;;;;;;;;;;;;;;;;;5084161;28;20018;-61
2023/04/28 08:38:36;;;;;;;;;;;;;;;;;;5105142;27;19924;-61
2023/04/28 08:41:02;;;;;;;;;;;;;;;;;;5087359;28;19926;-62
2023/04/28 08:43:29;;;;;;;;;;;;;;;;;;5096503;28;20413;-62
2023/04/28 08:45:54;;;;;;;;;;;;;;;;;;5094231;28;19923;-62
2023/04/28 08:48:21;;;;;;;;;;;;;;;;;;5096132;28;19931;-61
2023/04/28 08:50:46;;;;;;;;;;;;;;;;;;5113592;28;19920;-62
2023/04/28 08:53:12;;;;;;;;;;;;;;;;;;5108839;28;19927;-62
2023/04/28 08:55:38;;;;;;;;;;;;;;;;;;5076755;28;20296;-62
2023/04/28 08:58:04;;;;;;;;;;;;;;;;;;5093596;28;19920;-62
2023/04/28 09:00:31;;;;;;;;;;;;;;;;;;5106954;27;19946;-62
2023/04/28 09:02:57;;;;;;;;;;;;;;;;;;5096537;28;19927;-62
2023/04/28 09:05:23;;;;;;;;;;;;;;;;;;5092123;28;20278;-62
2023/04/28 09:07:50;;;;;;;;;;;;;;;;;;5109499;27;19919;-62
2023/04/28 09:10:20;;;;;;;;;;;;;;;;;;5115088;27;19966;-62
2023/04/28 09:12:46;;;;;;;;;;;;;;;;;;5069131;28;20034;-62
2023/04/28 09:15:12;;;;;;;;;;;;;;;;;;5110884;28;20020;-60
2023/04/28 09:17:37;;;;;;;;;;;;;;;;;;5112820;27;20383;-61
2023/04/28 09:20:03;;;;;;;;;;;;;;;;;;5107349;28;20014;-61
2023/04/28 09:22:29;;;;;;;;;;;;;;;;;;5105552;27;19952;-60
2023/04/28 09:24:55;;;;;;;;;;;;;;;;;;5091582;28;19946;-61
2023/04/28 09:27:21;;;;;;;;;;;;;;;;;;5105357;27;19926;-61
2023/04/28 09:29:47;;;;;;;;;;;;;;;;;;5111979;27;19919;-61
2023/04/28 09:32:13;;;;;;;;;;;;;;;;;;5103133;28;20093;-61
2023/04/28 09:34:39;;;;;;;;;;;;;;;;;;5110131;27;20014;-61
2023/04/28 09:37:05;;;;;;;;;;;;;;;;;;5126596;27;19928;-61
2023/04/28 09:39:31;;;;;;;;;;;;;;;;;;5107191;27;19967;-60
2023/04/28 09:41:57;;;;;;;;;;;;;;;;;;5106043;27;19924;-61
2023/04/28 09:44:23;;;;;;;;;;;;;;;;;;5103428;28;19923;-61
2023/04/28 09:46:49;;;;;;;;;;;;;;;;;;5107591;27;19981;-61
2023/04/28 09:49:15;;;;;;;;;;;;;;;;;;5109225;28;19928;-61
2023/04/28 09:51:41;;;;;;;;;;;;;;;;;;5097889;27;19924;-61
2023/04/28 09:54:07;;;;;;;;;;;;;;;;;;5111909;27;19927;-61
2023/04/28 09:56:33;;;;;;;;;;;;;;;;;;5093519;28;19927;-60
2023/04/28 09:58:59;;;;;;;;;;;;;;;;;;5109725;27;19924;-60
2023/04/28 10:01:25;;;;;;;;;;;;;;;;;;5112999;27;19998;-60
2023/04/28 10:03:52;;;;;;;;;;;;;;;;;;5098765;27;19965;-60
2023/04/28 10:06:17;;;;;;;;;;;;;;;;;;5104054;27;19924;-61
2023/04/28 10:08:47;;;;;;;;;;;;;;;;;;5095535;28;19926;-61
2023/04/28 10:11:13;;;;;;;;;;;;;;;;;;5109578;27;20342;-61
2023/04/28 10:13:39;;;;;;;;;;;;;;;;;;5110026;27;20533;-61
2023/04/28 10:16:04;;;;;;;;;;;;;;;;;;5111362;28;19923;-61
2023/04/28 10:18:31;;;;;;;;;;;;;;;;;;5108674;28;19931;-61
2023/04/28 10:20:57;;;;;;;;;;;;;;;;;;5113436;28;19930;-61
2023/04/28 10:23:23;;;;;;;;;;;;;;;;;;5110356;27;19928;-61
2023/04/28 10:25:49;;;;;;;;;;;;;;;;;;5110901;27;19972;-61
2023/04/28 10:28:15;;;;;;;;;;;;;;;;;;5110576;28;19920;-61
2023/04/28 10:30:41;;;;;;;;;;;;;;;;;;5111069;27;19931;-61
2023/04/28 10:33:06;;;;;;;;;;;;;;;;;;5112486;28;19963;-61
2023/04/28 10:35:35;;;;;;;;;;;;;;;;;;5104712;27;19993;-61
2023/04/28 10:38:01;;;;;;;;;;;;;;;;;;5107109;27;19930;-61
2023/04/28 10:40:26;;;;;;;;;;;;;;;;;;5103303;28;19919;-61
2023/04/28 10:42:52;;;;;;;;;;;;;;;;;;5105647;28;20483;-61
2023/04/28 10:45:18;;;;;;;;;;;;;;;;;;5107008;27;19924;-61
2023/04/28 10:47:44;;;;;;;;;;;;;;;;;;5103262;28;19920;-61
2023/04/28 10:50:10;;;;;;;;;;;;;;;;;;5074678;28;19931;-62
2023/04/28 10:52:39;;;;;;;;;;;;;;;;;;5088970;28;20415;-61
2023/04/28 10:55:05;;;;;;;;;;;;;;;;;;5089081;28;19947;-61
2023/04/28 10:57:31;;;;;;;;;;;;;;;;;;5066068;28;19920;-61
2023/04/28 10:59:57;;;;;;;;;;;;;;;;;;5092819;28;19927;-61
2023/04/28 11:02:23;;;;;;;;;;;;;;;;;;5064367;28;19964;-61
2023/04/28 11:04:49;;;;;;;;;;;;;;;;;;5092326;28;19938;-61
2023/04/28 11:07:15;;;;;;;;;;;;;;;;;;5086971;28;19925;-62
2023/04/28 11:09:41;;;;;;;;;;;;;;;;;;5083150;28;20338;-61
2023/04/28 11:12:09;;;;;;;;;;;;;;;;;;5083758;28;19934;-62
2023/04/28 11:14:35;;;;;;;;;;;;;;;;;;5081077;28;20388;-62
2023/04/28 11:17:04;;;;;;;;;;;;;;;;;;5085926;28;19920;-62
2023/04/28 11:19:30;;;;;;;;;;;;;;;;;;5070086;28;19938;-61
2023/04/28 11:21:56;;;;;;;;;;;;;;;;;;5088238;28;19924;-62
2023/04/28 11:24:24;;;;;;;;;;;;;;;;;;5067874;28;19955;-61
2023/04/28 11:26:50;;;;;;;;;;;;;;;;;;5083589;28;19948;-62
2023/04/28 11:29:16;;;;;;;;;;;;;;;;;;5087664;28;20388;-61
2023/04/28 11:31:43;;;;;;;;;;;;;;;;;;5088271;28;19924;-61
2023/04/28 11:34:10;;;;;;;;;;;;;;;;;;5083357;28;20370;-62
2023/04/28 11:36:36;;;;;;;;;;;;;;;;;;5084324;28;19931;-62
2023/04/28 11:39:03;;;;;;;;;;;;;;;;;;5084279;28;19931;-61
2023/04/28 11:41:29;;;;;;;;;;;;;;;;;;5081568;28;20492;-61
2023/04/28 11:43:55;;;;;;;;;;;;;;;;;;5066009;28;19924;-62
2023/04/28 11:46:21;;;;;;;;;;;;;;;;;;5087857;28;19927;-62
2023/04/28 11:48:47;;;;;;;;;;;;;;;;;;5087790;28;19920;-62
2023/04/28 11:51:13;;;;;;;;;;;;;;;;;;5087406;28;19931;-62
2023/04/28 11:53:39;;;;;;;;;;;;;;;;;;5101472;28;19977;-62
2023/04/28 11:56:06;;;;;;;;;;;;;;;;;;5086226;28;20002;-61
2023/04/28 11:58:32;;;;;;;;;;;;;;;;;;5072468;28;19920;-63
2023/04/28 12:00:58;;;;;;;;;;;;;;;;;;5091572;28;19926;-64
2023/04/28 12:03:24;;;;;;;;;;;;;;;;;;5091732;28;20380;-64
2023/04/28 12:05:50;;;;;;;;;;;;;;;;;;5095199;28;19928;-64
2023/04/28 12:08:16;;;;;;;;;;;;;;;;;;5108546;28;19920;-64
2023/04/28 12:10:42;;;;;;;;;;;;;;;;;;5054750;28;19947;-64
2023/04/28 12:13:08;;;;;;;;;;;;;;;;;;5092479;28;20311;-64
2023/04/28 12:15:34;;;;;;;;;;;;;;;;;;5089784;28;20297;-64
2023/04/28 12:18:00;;;;;;;;;;;;;;;;;;5059615;28;19977;-64
2023/04/28 12:20:26;;;;;;;;;;;;;;;;;;5091700;28;19927;-64
2023/04/28 12:22:52;;;;;;;;;;;;;;;;;;5089847;28;19924;-65
2023/04/28 12:25:18;;;;;;;;;;;;;;;;;;5106916;28;20304;-64
2023/04/28 12:27:44;;;;;;;;;;;;;;;;;;5071500;28;20323;-64
2023/04/28 12:30:10;;;;;;;;;;;;;;;;;;5104576;28;19964;-64
2023/04/28 12:32:36;;;;;;;;;;;;;;;;;;5068559;28;19926;-64
2023/04/28 12:35:04;;;;;;;;;;;;;;;;;;5084454;28;20015;-64
2023/04/28 12:37:30;;;;;;;;;;;;;;;;;;5085123;28;20305;-64
2023/04/28 12:39:56;;;;;;;;;;;;;;;;;;5066125;28;19924;-64
2023/04/28 12:42:22;;;;;;;;;;;;;;;;;;5064985;28;19924;-64
2023/04/28 12:44:49;;;;;;;;;;;;;;;;;;5088765;28;20266;-64
2023/04/28 12:47:16;;;;;;;;;;;;;;;;;;5104983;28;20426;-64
2023/04/28 12:49:42;;;;;;;;;;;;;;;;;;5089169;28;19920;-64
2023/04/28 12:52:08;;;;;;;;;;;;;;;;;;5091842;28;19924;-64
2023/04/28 12:54:34;;;;;;;;;;;;;;;;;;5114331;28;19923;-64
2023/04/28 12:57:01;;;;;;;;;;;;;;;;;;5113949;27;19932;-64
2023/04/28 12:59:27;;;;;;;;;;;;;;;;;;5110282;27;19932;-65
2023/04/28 13:01:55;;;;;;;;;;;;;;;;;;5083057;27;20217;-65
2023/04/28 13:04:21;;;;;;;;;;;;;;;;;;5145921;22;19939;-66
2023/04/28 13:06:47;;;;;;;;;;;;;;;;;;5075778;28;19924;-66
2023/04/28 13:09:16;;;;;;;;;;;;;;;;;;5074898;28;20019;-65
2023/04/28 13:11:42;;;;;;;;;;;;;;;;;;5073270;28;20012;-66
2023/04/28 13:14:08;;;;;;;;;;;;;;;;;;5060445;28;20477;-66
2023/04/28 13:16:34;;;;;;;;;;;;;;;;;;5061714;28;19974;-66
2023/04/28 13:19:00;;;;;;;;;;;;;;;;;;5067870;28;19920;-66
2023/04/28 13:21:27;;;;;;;;;;;;;;;;;;5068823;28;19930;-66
2023/04/28 13:23:53;;;;;;;;;;;;;;;;;;5055134;28;19924;-66
2023/04/28 13:26:19;;;;;;;;;;;;;;;;;;5071824;28;19935;-66
2023/04/28 13:28:45;;;;;;;;;;;;;;;;;;5073461;28;19924;-66
2023/04/28 13:31:11;;;;;;;;;;;;;;;;;;5071071;28;20381;-67
2023/04/28 13:33:38;;;;;;;;;;;;;;;;;;5066762;28;19920;-67
2023/04/28 13:36:03;;;;;;;;;;;;;;;;;;5050556;28;21062;-67
2023/04/28 13:38:29;;;;;;;;;;;;;;;;;;5063269;28;19920;-67
2023/04/28 13:40:55;;;;;;;;;;;;;;;;;;5064677;28;19926;-66
2023/04/28 13:43:22;;;;;;;;;;;;;;;;;;5068779;28;19961;-66
2023/04/28 13:45:49;;;;;;;;;;;;;;;;;;5067609;28;19986;-66
2023/04/28 13:48:15;;;;;;;;;;;;;;;;;;5070549;28;20039;-66
2023/04/28 13:50:41;;;;;;;;;;;;;;;;;;5067431;28;21499;-66
2023/04/28 13:53:07;;;;;;;;;;;;;;;;;;5070173;28;19920;-68
2023/04/28 13:55:33;;;;;;;;;;;;;;;;;;5068052;28;19924;-67
2023/04/28 13:58:03;;;;;;;;;;;;;;;;;;5073598;28;19924;-66
2023/04/28 14:00:29;;;;;;;;;;;;;;;;;;5066891;28;20297;-67
2023/04/28 14:02:55;;;;;;;;;;;;;;;;;;5069671;28;20011;-67
2023/04/28 14:05:21;;;;;;;;;;;;;;;;;;5064887;28;19920;-69
2023/04/28 14:07:47;;;;;;;;;;;;;;;;;;5057019;28;19943;-68
2023/04/28 14:10:13;;;;;;;;;;;;;;;;;;5069366;28;19931;-66
2023/04/28 14:12:39;;;;;;;;;;;;;;;;;;5054898;28;20404;-67
2023/04/28 14:15:05;;;;;;;;;;;;;;;;;;5071075;28;19986;-66
2023/04/28 14:17:33;;;;;;;;;;;;;;;;;;5070896;28;19965;-66
2023/04/28 14:19:59;;;;;;;;;;;;;;;;;;5069272;28;20011;-66
2023/04/28 14:22:25;;;;;;;;;;;;;;;;;;5068057;28;20081;-67
2023/04/28 14:24:50;;;;;;;;;;;;;;;;;;5067254;28;19981;-66
2023/04/28 14:27:16;;;;;;;;;;;;;;;;;;5056541;28;19995;-67
2023/04/28 14:29:43;;;;;;;;;;;;;;;;;;5077221;28;20309;-66
2023/04/28 14:32:09;;;;;;;;;;;;;;;;;;5070051;28;20339;-67
2023/04/28 14:34:35;;;;;;;;;;;;;;;;;;5054341;28;20600;-67
2023/04/28 14:37:01;;;;;;;;;;;;;;;;;;5070871;28;19955;-67
2023/04/28 14:39:27;;;;;;;;;;;;;;;;;;5062733;28;19970;-66
2023/04/28 14:41:53;;;;;;;;;;;;;;;;;;5063831;28;20031;-67
2023/04/28 14:44:18;;;;;;;;;;;;;;;;;;5073216;28;20367;-67
2023/04/28 14:46:44;;;;;;;;;;;;;;;;;;5070546;28;20019;-66
2023/04/28 14:49:10;;;;;;;;;;;;;;;;;;5065176;28;19928;-66
2023/04/28 14:51:36;;;;;;;;;;;;;;;;;;5050894;28;20041;-66
2023/04/28 14:54:03;;;;;;;;;;;;;;;;;;5048782;28;19973;-67
2023/04/28 14:56:29;;;;;;;;;;;;;;;;;;5061959;28;20010;-66
2023/04/28 14:58:55;;;;;;;;;;;;;;;;;;5071918;28;20015;-70
2023/04/28 15:01:20;;;;;;;;;;;;;;;;;;5093395;28;19924;-69
2023/04/28 15:03:46;;;;;;;;;;;;;;;;;;5069392;28;19925;-69
2023/04/28 15:06:12;;;;;;;;;;;;;;;;;;5064603;28;19920;-70
2023/04/28 15:08:39;;;;;;;;;;;;;;;;;;5071391;28;20129;-69
2023/04/28 15:11:05;;;;;;;;;;;;;;;;;;5090718;28;19920;-69
2023/04/28 15:13:31;;;;;;;;;;;;;;;;;;5069935;28;20418;-69
2023/04/28 15:15:57;;;;;;;;;;;;;;;;;;5088476;28;20038;-69
2023/04/28 15:18:23;;;;;;;;;;;;;;;;;;5071386;28;19935;-69
2023/04/28 15:20:49;;;;;;;;;;;;;;;;;;5072190;28;20014;-69
2023/04/28 15:23:15;;;;;;;;;;;;;;;;;;5067941;28;20015;-67
2023/04/28 15:25:41;;;;;;;;;;;;;;;;;;5070122;28;19931;-66
2023/04/28 15:28:07;;;;;;;;;;;;;;;;;;5089561;28;19924;-67
2023/04/28 15:30:33;;;;;;;;;;;;;;;;;;5072256;28;19969;-67
2023/04/28 15:32:59;;;;;;;;;;;;;;;;;;5085888;28;20482;-65
2023/04/28 15:35:25;;;;;;;;;;;;;;;;;;5066962;28;19931;-65
2023/04/28 15:37:52;;;;;;;;;;;;;;;;;;5066727;28;19928;-65
2023/04/28 15:40:18;;;;;;;;;;;;;;;;;;5068463;28;19923;-65
2023/04/28 15:42:47;;;;;;;;;;;;;;;;;;5063945;28;19932;-65
2023/04/28 15:45:14;;;;;;;;;;;;;;;;;;5059970;28;19930;-65
2023/04/28 15:47:41;;;;;;;;;;;;;;;;;;5064785;28;19925;-65
2023/04/28 15:50:07;;;;;;;;;;;;;;;;;;5081408;28;20011;-65
2023/04/28 15:52:33;;;;;;;;;;;;;;;;;;5066892;28;19978;-65
2023/04/28 15:54:59;;;;;;;;;;;;;;;;;;5067895;28;19928;-65
2023/04/28 15:57:25;;;;;;;;;;;;;;;;;;5070709;28;20369;-65
2023/04/28 15:59:51;;;;;;;;;;;;;;;;;;5067206;28;19924;-65
2023/04/28 16:02:17;;;;;;;;;;;;;;;;;;5050469;28;19925;-65
2023/04/28 16:04:43;;;;;;;;;;;;;;;;;;5070977;28;19930;-65
2023/04/28 16:07:09;;;;;;;;;;;;;;;;;;5070361;28;20438;-65
2023/04/28 16:09:35;;;;;;;;;;;;;;;;;;5070673;28;19931;-65
2023/04/28 16:12:03;;;;;;;;;;;;;;;;;;5068848;28;19928;-65
2023/04/28 16:14:28;;;;;;;;;;;;;;;;;;5069669;28;19928;-65
2023/04/28 16:16:54;;;;;;;;;;;;;;;;;;5064671;28;20369;-65
2023/04/28 16:19:21;;;;;;;;;;;;;;;;;;5070890;28;19924;-65
2023/04/28 16:21:47;;;;;;;;;;;;;;;;;;5069759;28;20346;-65
2023/04/28 16:24:12;;;;;;;;;;;;;;;;;;5046499;28;19924;-65
2023/04/28 16:26:38;;;;;;;;;;;;;;;;;;5069954;28;19943;-65
2023/04/28 16:29:04;;;;;;;;;;;;;;;;;;5062867;28;19963;-66
2023/04/28 16:31:31;;;;;;;;;;;;;;;;;;5069090;28;20088;-65
2023/04/28 16:33:57;;;;;;;;;;;;;;;;;;5044741;28;19920;-65
2023/04/28 16:36:23;;;;;;;;;;;;;;;;;;5080758;28;19971;-65